sensor_id;sensor_type;location;lat;lon;timestamp;P1;durP1;ratioP1;P2;durP2;ratioP2
48014;SDS011;33780;51.034;7.120;2023-04-03T00:00:47;2.50;;;1.52;;
48014;SDS011;33780;51.034;7.120;2023-04-03T00:03:14;3.75;;;1.73;;
48014;SDS011;33780;51.034;7.120;2023-04-03T00:05:40;5.47;;;1.83;;
48014;SDS011;33780;51.034;7.120;2023-04-03T00:08:05;3.92;;;1.63;;
48014;SDS011;33780;51.034;7.120;2023-04-03T00:10:32;2.78;;;1.67;;
48014;SDS011;33780;51.034;7.120;2023-04-03T00:12:58;4.00;;;1.70;;
48014;SDS011;33780;51.034;7.120;2023-04-03T00:15:23;3.05;;;1.67;;
48014;SDS011;33780;51.034;7.120;2023-04-03T00:17:49;2.92;;;1.50;;
48014;SDS011;33780;51.034;7.120;2023-04-03T00:20:14;4.40;;;1.80;;
48014;SDS011;33780;51.034;7.120;2023-04-03T00:22:40;3.03;;;1.73;;
48014;SDS011;33780;51.034;7.120;2023-04-03T00:25:05;3.40;;;1.90;;
48014;SDS011;33780;51.034;7.120;2023-04-03T00:27:31;4.05;;;1.60;;
48014;SDS011;33780;51.034;7.120;2023-04-03T00:29:56;3.38;;;1.85;;
48014;SDS011;33780;51.034;7.120;2023-04-03T00:32:22;4.18;;;1.85;;
48014;SDS011;33780;51.034;7.120;2023-04-03T00:34:47;3.45;;;1.52;;
48014;SDS011;33780;51.034;7.120;2023-04-03T00:37:12;2.83;;;1.73;;
48014;SDS011;33780;51.034;7.120;2023-04-03T00:39:37;4.47;;;1.80;;
48014;SDS011;33780;51.034;7.120;2023-04-03T00:42:03;5.32;;;1.63;;
48014;SDS011;33780;51.034;7.120;2023-04-03T00:46:53;3.23;;;1.70;;
48014;SDS011;33780;51.034;7.120;2023-04-03T00:49:18;6.80;;;2.05;;
48014;SDS011;33780;51.034;7.120;2023-04-03T00:51:44;3.42;;;1.58;;
48014;SDS011;33780;51.034;7.120;2023-04-03T00:54:10;3.15;;;1.50;;
48014;SDS011;33780;51.034;7.120;2023-04-03T00:56:35;2.88;;;1.55;;
48014;SDS011;33780;51.034;7.120;2023-04-03T01:01:30;5.13;;;1.88;;
48014;SDS011;33780;51.034;7.120;2023-04-03T01:03:57;4.40;;;1.75;;
48014;SDS011;33780;51.034;7.120;2023-04-03T01:06:26;3.17;;;1.88;;
48014;SDS011;33780;51.034;7.120;2023-04-03T01:08:56;3.08;;;1.70;;
48014;SDS011;33780;51.034;7.120;2023-04-03T01:11:21;3.95;;;1.60;;
48014;SDS011;33780;51.034;7.120;2023-04-03T01:13:46;3.35;;;1.65;;
48014;SDS011;33780;51.034;7.120;2023-04-03T01:16:12;6.00;;;1.80;;
48014;SDS011;33780;51.034;7.120;2023-04-03T01:18:37;4.00;;;1.65;;
48014;SDS011;33780;51.034;7.120;2023-04-03T01:21:08;3.97;;;2.33;;
48014;SDS011;33780;51.034;7.120;2023-04-03T01:23:39;2.87;;;1.70;;
48014;SDS011;33780;51.034;7.120;2023-04-03T01:26:18;4.32;;;1.88;;
48014;SDS011;33780;51.034;7.120;2023-04-03T01:28:44;6.88;;;2.00;;
48014;SDS011;33780;51.034;7.120;2023-04-03T01:31:15;5.03;;;2.00;;
48014;SDS011;33780;51.034;7.120;2023-04-03T01:33:47;3.20;;;1.80;;
48014;SDS011;33780;51.034;7.120;2023-04-03T01:36:17;2.95;;;1.52;;
48014;SDS011;33780;51.034;7.120;2023-04-03T01:38:45;2.92;;;1.60;;
48014;SDS011;33780;51.034;7.120;2023-04-03T01:41:10;3.15;;;1.92;;
48014;SDS011;33780;51.034;7.120;2023-04-03T01:43:36;5.50;;;2.05;;
48014;SDS011;33780;51.034;7.120;2023-04-03T01:46:01;3.47;;;1.60;;
48014;SDS011;33780;51.034;7.120;2023-04-03T01:48:26;5.40;;;2.20;;
48014;SDS011;33780;51.034;7.120;2023-04-03T01:50:51;5.32;;;1.90;;
48014;SDS011;33780;51.034;7.120;2023-04-03T01:53:17;3.67;;;1.73;;
48014;SDS011;33780;51.034;7.120;2023-04-03T01:55:43;3.22;;;2.00;;
48014;SDS011;33780;51.034;7.120;2023-04-03T01:58:08;3.45;;;2.08;;
48014;SDS011;33780;51.034;7.120;2023-04-03T02:00:33;3.75;;;1.85;;
48014;SDS011;33780;51.034;7.120;2023-04-03T02:02:59;4.07;;;1.80;;
48014;SDS011;33780;51.034;7.120;2023-04-03T02:05:24;3.25;;;1.90;;
48014;SDS011;33780;51.034;7.120;2023-04-03T02:07:49;5.85;;;1.92;;
48014;SDS011;33780;51.034;7.120;2023-04-03T02:10:15;3.30;;;1.80;;
48014;SDS011;33780;51.034;7.120;2023-04-03T02:12:41;4.32;;;2.00;;
48014;SDS011;33780;51.034;7.120;2023-04-03T02:15:06;3.92;;;1.88;;
48014;SDS011;33780;51.034;7.120;2023-04-03T02:17:32;4.20;;;1.65;;
48014;SDS011;33780;51.034;7.120;2023-04-03T02:19:57;3.42;;;1.80;;
48014;SDS011;33780;51.034;7.120;2023-04-03T02:22:22;3.83;;;2.20;;
48014;SDS011;33780;51.034;7.120;2023-04-03T02:24:48;2.92;;;1.60;;
48014;SDS011;33780;51.034;7.120;2023-04-03T02:27:13;3.60;;;1.67;;
48014;SDS011;33780;51.034;7.120;2023-04-03T02:29:38;3.28;;;1.73;;
48014;SDS011;33780;51.034;7.120;2023-04-03T02:32:04;2.83;;;1.70;;
48014;SDS011;33780;51.034;7.120;2023-04-03T02:34:29;3.25;;;2.00;;
48014;SDS011;33780;51.034;7.120;2023-04-03T02:36:55;3.53;;;1.50;;
48014;SDS011;33780;51.034;7.120;2023-04-03T02:39:20;3.78;;;1.80;;
48014;SDS011;33780;51.034;7.120;2023-04-03T02:41:46;5.88;;;1.90;;
48014;SDS011;33780;51.034;7.120;2023-04-03T02:44:11;4.57;;;1.70;;
48014;SDS011;33780;51.034;7.120;2023-04-03T02:46:37;2.83;;;1.60;;
48014;SDS011;33780;51.034;7.120;2023-04-03T02:49:02;2.63;;;1.90;;
48014;SDS011;33780;51.034;7.120;2023-04-03T02:51:28;5.25;;;2.00;;
48014;SDS011;33780;51.034;7.120;2023-04-03T02:53:53;2.70;;;1.65;;
48014;SDS011;33780;51.034;7.120;2023-04-03T02:56:18;4.18;;;1.90;;
48014;SDS011;33780;51.034;7.120;2023-04-03T02:58:45;3.35;;;1.70;;
48014;SDS011;33780;51.034;7.120;2023-04-03T03:01:10;2.97;;;1.70;;
48014;SDS011;33780;51.034;7.120;2023-04-03T03:03:36;3.10;;;1.60;;
48014;SDS011;33780;51.034;7.120;2023-04-03T03:06:02;3.47;;;1.90;;
48014;SDS011;33780;51.034;7.120;2023-04-03T03:08:29;3.30;;;1.70;;
48014;SDS011;33780;51.034;7.120;2023-04-03T03:10:55;4.45;;;1.80;;
48014;SDS011;33780;51.034;7.120;2023-04-03T03:13:20;5.20;;;1.80;;
48014;SDS011;33780;51.034;7.120;2023-04-03T03:15:46;4.30;;;1.92;;
48014;SDS011;33780;51.034;7.120;2023-04-03T03:18:11;4.05;;;1.80;;
48014;SDS011;33780;51.034;7.120;2023-04-03T03:20:36;2.63;;;1.60;;
48014;SDS011;33780;51.034;7.120;2023-04-03T03:23:01;3.53;;;1.80;;
48014;SDS011;33780;51.034;7.120;2023-04-03T03:25:27;2.72;;;1.80;;
48014;SDS011;33780;51.034;7.120;2023-04-03T03:27:52;5.93;;;2.03;;
48014;SDS011;33780;51.034;7.120;2023-04-03T03:30:17;3.20;;;1.85;;
48014;SDS011;33780;51.034;7.120;2023-04-03T03:32:43;5.97;;;2.00;;
48014;SDS011;33780;51.034;7.120;2023-04-03T03:35:08;2.63;;;1.60;;
48014;SDS011;33780;51.034;7.120;2023-04-03T03:37:33;3.97;;;2.20;;
48014;SDS011;33780;51.034;7.120;2023-04-03T03:39:59;3.53;;;1.90;;
48014;SDS011;33780;51.034;7.120;2023-04-03T03:42:24;3.67;;;1.90;;
48014;SDS011;33780;51.034;7.120;2023-04-03T03:44:50;3.78;;;1.77;;
48014;SDS011;33780;51.034;7.120;2023-04-03T03:47:16;3.30;;;1.80;;
48014;SDS011;33780;51.034;7.120;2023-04-03T03:49:42;4.25;;;1.70;;
48014;SDS011;33780;51.034;7.120;2023-04-03T03:52:07;2.17;;;1.35;;
48014;SDS011;33780;51.034;7.120;2023-04-03T03:54:35;3.15;;;1.63;;
48014;SDS011;33780;51.034;7.120;2023-04-03T03:57:00;4.07;;;1.75;;
48014;SDS011;33780;51.034;7.120;2023-04-03T03:59:26;4.03;;;1.90;;
48014;SDS011;33780;51.034;7.120;2023-04-03T04:01:51;2.47;;;1.60;;
48014;SDS011;33780;51.034;7.120;2023-04-03T04:04:16;3.58;;;1.55;;
48014;SDS011;33780;51.034;7.120;2023-04-03T04:06:41;3.38;;;1.90;;
48014;SDS011;33780;51.034;7.120;2023-04-03T04:09:08;4.22;;;1.80;;
48014;SDS011;33780;51.034;7.120;2023-04-03T04:11:34;2.33;;;1.58;;
48014;SDS011;33780;51.034;7.120;2023-04-03T04:13:59;2.50;;;1.50;;
48014;SDS011;33780;51.034;7.120;2023-04-03T04:16:24;3.00;;;1.75;;
48014;SDS011;33780;51.034;7.120;2023-04-03T04:18:50;3.92;;;1.88;;
48014;SDS011;33780;51.034;7.120;2023-04-03T04:21:15;3.20;;;1.60;;
48014;SDS011;33780;51.034;7.120;2023-04-03T04:23:40;4.22;;;1.55;;
48014;SDS011;33780;51.034;7.120;2023-04-03T04:26:05;2.70;;;1.40;;
48014;SDS011;33780;51.034;7.120;2023-04-03T04:28:31;2.88;;;1.58;;
48014;SDS011;33780;51.034;7.120;2023-04-03T04:30:56;3.20;;;1.60;;
48014;SDS011;33780;51.034;7.120;2023-04-03T04:33:21;2.78;;;1.60;;
48014;SDS011;33780;51.034;7.120;2023-04-03T04:35:47;3.92;;;1.60;;
48014;SDS011;33780;51.034;7.120;2023-04-03T04:38:13;4.43;;;1.58;;
48014;SDS011;33780;51.034;7.120;2023-04-03T04:40:38;4.63;;;1.60;;
48014;SDS011;33780;51.034;7.120;2023-04-03T04:43:05;2.55;;;1.38;;
48014;SDS011;33780;51.034;7.120;2023-04-03T04:45:30;2.70;;;1.42;;
48014;SDS011;33780;51.034;7.120;2023-04-03T04:47:56;3.88;;;1.40;;
48014;SDS011;33780;51.034;7.120;2023-04-03T04:50:22;2.63;;;1.45;;
48014;SDS011;33780;51.034;7.120;2023-04-03T04:52:47;2.53;;;1.50;;
48014;SDS011;33780;51.034;7.120;2023-04-03T04:55:12;2.10;;;1.30;;
48014;SDS011;33780;51.034;7.120;2023-04-03T04:57:37;2.25;;;1.17;;
48014;SDS011;33780;51.034;7.120;2023-04-03T05:00:03;2.95;;;1.52;;
48014;SDS011;33780;51.034;7.120;2023-04-03T05:02:29;2.55;;;1.33;;
48014;SDS011;33780;51.034;7.120;2023-04-03T05:04:55;3.35;;;1.38;;
48014;SDS011;33780;51.034;7.120;2023-04-03T05:07:21;3.38;;;1.40;;
48014;SDS011;33780;51.034;7.120;2023-04-03T05:09:46;2.95;;;1.40;;
48014;SDS011;33780;51.034;7.120;2023-04-03T05:12:12;2.95;;;1.52;;
48014;SDS011;33780;51.034;7.120;2023-04-03T05:14:37;2.67;;;1.30;;
48014;SDS011;33780;51.034;7.120;2023-04-03T05:17:02;3.55;;;1.30;;
48014;SDS011;33780;51.034;7.120;2023-04-03T05:19:27;3.67;;;1.65;;
48014;SDS011;33780;51.034;7.120;2023-04-03T05:21:53;2.78;;;1.30;;
48014;SDS011;33780;51.034;7.120;2023-04-03T05:24:18;3.33;;;1.10;;
48014;SDS011;33780;51.034;7.120;2023-04-03T05:26:43;2.35;;;1.45;;
48014;SDS011;33780;51.034;7.120;2023-04-03T05:29:09;2.85;;;1.48;;
48014;SDS011;33780;51.034;7.120;2023-04-03T05:31:35;2.00;;;1.30;;
48014;SDS011;33780;51.034;7.120;2023-04-03T05:34:00;3.25;;;1.30;;
48014;SDS011;33780;51.034;7.120;2023-04-03T05:36:25;3.35;;;1.50;;
48014;SDS011;33780;51.034;7.120;2023-04-03T05:38:51;2.13;;;1.20;;
48014;SDS011;33780;51.034;7.120;2023-04-03T05:41:16;2.35;;;1.20;;
48014;SDS011;33780;51.034;7.120;2023-04-03T05:43:42;3.80;;;1.30;;
48014;SDS011;33780;51.034;7.120;2023-04-03T05:46:15;2.20;;;1.17;;
48014;SDS011;33780;51.034;7.120;2023-04-03T05:48:42;2.65;;;1.08;;
48014;SDS011;33780;51.034;7.120;2023-04-03T05:53:40;3.50;;;1.50;;
48014;SDS011;33780;51.034;7.120;2023-04-03T05:56:06;3.63;;;1.27;;
48014;SDS011;33780;51.034;7.120;2023-04-03T05:58:31;2.88;;;1.17;;
48014;SDS011;33780;51.034;7.120;2023-04-03T06:00:57;2.55;;;1.20;;
48014;SDS011;33780;51.034;7.120;2023-04-03T06:03:22;2.30;;;1.10;;
48014;SDS011;33780;51.034;7.120;2023-04-03T06:05:48;1.80;;;1.02;;
48014;SDS011;33780;51.034;7.120;2023-04-03T06:08:13;2.33;;;1.20;;
48014;SDS011;33780;51.034;7.120;2023-04-03T06:10:39;1.90;;;0.90;;
48014;SDS011;33780;51.034;7.120;2023-04-03T06:13:05;2.45;;;1.20;;
48014;SDS011;33780;51.034;7.120;2023-04-03T06:15:31;4.43;;;1.13;;
48014;SDS011;33780;51.034;7.120;2023-04-03T06:17:56;4.03;;;1.17;;
48014;SDS011;33780;51.034;7.120;2023-04-03T06:20:22;6.07;;;1.05;;
48014;SDS011;33780;51.034;7.120;2023-04-03T06:22:47;2.65;;;1.00;;
48014;SDS011;33780;51.034;7.120;2023-04-03T06:25:13;2.88;;;1.10;;
48014;SDS011;33780;51.034;7.120;2023-04-03T06:27:39;2.25;;;1.08;;
48014;SDS011;33780;51.034;7.120;2023-04-03T06:30:07;1.80;;;1.00;;
48014;SDS011;33780;51.034;7.120;2023-04-03T06:32:33;2.80;;;1.15;;
48014;SDS011;33780;51.034;7.120;2023-04-03T06:35:08;4.05;;;1.05;;
48014;SDS011;33780;51.034;7.120;2023-04-03T06:37:34;2.67;;;1.00;;
48014;SDS011;33780;51.034;7.120;2023-04-03T06:40:03;2.05;;;1.00;;
48014;SDS011;33780;51.034;7.120;2023-04-03T06:42:29;3.00;;;0.85;;
48014;SDS011;33780;51.034;7.120;2023-04-03T06:44:55;2.05;;;0.90;;
48014;SDS011;33780;51.034;7.120;2023-04-03T06:47:20;5.45;;;1.15;;
48014;SDS011;33780;51.034;7.120;2023-04-03T06:49:48;4.28;;;1.10;;
48014;SDS011;33780;51.034;7.120;2023-04-03T06:52:16;2.50;;;0.93;;
48014;SDS011;33780;51.034;7.120;2023-04-03T06:54:42;2.38;;;0.98;;
48014;SDS011;33780;51.034;7.120;2023-04-03T06:57:16;2.80;;;0.90;;
48014;SDS011;33780;51.034;7.120;2023-04-03T06:59:42;3.08;;;1.02;;
48014;SDS011;33780;51.034;7.120;2023-04-03T07:02:08;2.80;;;0.75;;
48014;SDS011;33780;51.034;7.120;2023-04-03T07:04:38;2.15;;;0.70;;
48014;SDS011;33780;51.034;7.120;2023-04-03T07:07:04;3.67;;;1.10;;
48014;SDS011;33780;51.034;7.120;2023-04-03T07:09:29;2.38;;;0.85;;
48014;SDS011;33780;51.034;7.120;2023-04-03T07:11:58;2.58;;;0.82;;
48014;SDS011;33780;51.034;7.120;2023-04-03T07:14:23;2.58;;;0.52;;
48014;SDS011;33780;51.034;7.120;2023-04-03T07:16:51;3.95;;;0.90;;
48014;SDS011;33780;51.034;7.120;2023-04-03T07:19:16;1.73;;;0.50;;
48014;SDS011;33780;51.034;7.120;2023-04-03T07:21:43;2.05;;;0.50;;
48014;SDS011;33780;51.034;7.120;2023-04-03T07:24:08;1.73;;;0.68;;
48014;SDS011;33780;51.034;7.120;2023-04-03T07:26:34;2.35;;;0.88;;
48014;SDS011;33780;51.034;7.120;2023-04-03T07:28:59;2.90;;;0.70;;
48014;SDS011;33780;51.034;7.120;2023-04-03T07:31:24;3.30;;;0.90;;
48014;SDS011;33780;51.034;7.120;2023-04-03T07:33:50;3.22;;;0.70;;
48014;SDS011;33780;51.034;7.120;2023-04-03T07:36:17;3.67;;;0.70;;
48014;SDS011;33780;51.034;7.120;2023-04-03T07:38:51;4.93;;;0.77;;
48014;SDS011;33780;51.034;7.120;2023-04-03T07:41:17;3.45;;;0.80;;
48014;SDS011;33780;51.034;7.120;2023-04-03T07:43:52;1.30;;;0.60;;
48014;SDS011;33780;51.034;7.120;2023-04-03T07:46:20;3.13;;;0.90;;
48014;SDS011;33780;51.034;7.120;2023-04-03T07:48:46;2.03;;;0.75;;
48014;SDS011;33780;51.034;7.120;2023-04-03T07:51:11;1.73;;;0.80;;
48014;SDS011;33780;51.034;7.120;2023-04-03T07:53:37;3.65;;;0.73;;
48014;SDS011;33780;51.034;7.120;2023-04-03T07:56:03;3.00;;;0.90;;
48014;SDS011;33780;51.034;7.120;2023-04-03T07:58:28;1.92;;;0.80;;
48014;SDS011;33780;51.034;7.120;2023-04-03T08:00:54;2.55;;;0.75;;
48014;SDS011;33780;51.034;7.120;2023-04-03T08:03:20;2.83;;;0.80;;
48014;SDS011;33780;51.034;7.120;2023-04-03T08:05:46;1.63;;;0.60;;
48014;SDS011;33780;51.034;7.120;2023-04-03T08:08:14;1.88;;;0.60;;
48014;SDS011;33780;51.034;7.120;2023-04-03T08:10:41;3.20;;;0.68;;
48014;SDS011;33780;51.034;7.120;2023-04-03T08:13:09;2.50;;;0.85;;
48014;SDS011;33780;51.034;7.120;2023-04-03T08:15:35;4.78;;;0.73;;
48014;SDS011;33780;51.034;7.120;2023-04-03T08:18:01;1.67;;;0.85;;
48014;SDS011;33780;51.034;7.120;2023-04-03T08:20:29;1.15;;;0.50;;
48014;SDS011;33780;51.034;7.120;2023-04-03T08:22:54;1.02;;;0.50;;
48014;SDS011;33780;51.034;7.120;2023-04-03T08:25:20;1.67;;;0.50;;
48014;SDS011;33780;51.034;7.120;2023-04-03T08:27:45;1.60;;;0.60;;
48014;SDS011;33780;51.034;7.120;2023-04-03T08:30:11;1.60;;;0.60;;
48014;SDS011;33780;51.034;7.120;2023-04-03T08:32:41;2.35;;;0.50;;
48014;SDS011;33780;51.034;7.120;2023-04-03T08:35:08;2.47;;;0.52;;
48014;SDS011;33780;51.034;7.120;2023-04-03T08:37:37;2.20;;;0.63;;
48014;SDS011;33780;51.034;7.120;2023-04-03T08:40:04;1.65;;;0.70;;
48014;SDS011;33780;51.034;7.120;2023-04-03T08:42:42;2.03;;;0.60;;
48014;SDS011;33780;51.034;7.120;2023-04-03T08:45:25;1.23;;;0.45;;
48014;SDS011;33780;51.034;7.120;2023-04-03T08:50:54;1.02;;;0.50;;
48014;SDS011;33780;51.034;7.120;2023-04-03T08:53:46;2.38;;;0.50;;
48014;SDS011;33780;51.034;7.120;2023-04-03T08:56:34;1.35;;;0.52;;
48014;SDS011;33780;51.034;7.120;2023-04-03T08:59:02;3.95;;;0.50;;
48014;SDS011;33780;51.034;7.120;2023-04-03T09:01:39;0.95;;;0.40;;
48014;SDS011;33780;51.034;7.120;2023-04-03T09:04:10;1.08;;;0.40;;
48014;SDS011;33780;51.034;7.120;2023-04-03T09:06:38;0.73;;;0.30;;
48014;SDS011;33780;51.034;7.120;2023-04-03T09:12:19;3.53;;;0.47;;
48014;SDS011;33780;51.034;7.120;2023-04-03T09:15:07;1.52;;;0.50;;
48014;SDS011;33780;51.034;7.120;2023-04-03T09:20:52;1.08;;;0.30;;
48014;SDS011;33780;51.034;7.120;2023-04-03T09:26:03;3.70;;;0.60;;
48014;SDS011;33780;51.034;7.120;2023-04-03T09:28:34;0.93;;;0.40;;
48014;SDS011;33780;51.034;7.120;2023-04-03T09:31:05;0.98;;;0.50;;
48014;SDS011;33780;51.034;7.120;2023-04-03T09:33:42;1.58;;;0.50;;
48014;SDS011;33780;51.034;7.120;2023-04-03T09:36:07;1.48;;;0.50;;
48014;SDS011;33780;51.034;7.120;2023-04-03T09:38:32;3.17;;;0.73;;
48014;SDS011;33780;51.034;7.120;2023-04-03T09:41:15;1.05;;;0.45;;
48014;SDS011;33780;51.034;7.120;2023-04-03T09:46:17;3.00;;;0.65;;
48014;SDS011;33780;51.034;7.120;2023-04-03T09:48:50;4.20;;;0.50;;
48014;SDS011;33780;51.034;7.120;2023-04-03T09:51:17;2.65;;;0.60;;
48014;SDS011;33780;51.034;7.120;2023-04-03T09:53:43;2.08;;;0.60;;
48014;SDS011;33780;51.034;7.120;2023-04-03T09:58:40;1.25;;;0.50;;
48014;SDS011;33780;51.034;7.120;2023-04-03T10:01:23;2.10;;;0.68;;
48014;SDS011;33780;51.034;7.120;2023-04-03T10:04:01;6.25;;;0.80;;
48014;SDS011;33780;51.034;7.120;2023-04-03T10:06:41;0.90;;;0.40;;
48014;SDS011;33780;51.034;7.120;2023-04-03T10:09:16;2.00;;;0.52;;
48014;SDS011;33780;51.034;7.120;2023-04-03T10:12:04;0.98;;;0.35;;
48014;SDS011;33780;51.034;7.120;2023-04-03T10:14:39;1.05;;;0.30;;
48014;SDS011;33780;51.034;7.120;2023-04-03T10:36:24;1.85;;;0.45;;
48014;SDS011;33780;51.034;7.120;2023-04-03T10:44:30;1.15;;;0.40;;
48014;SDS011;33780;51.034;7.120;2023-04-03T10:47:15;2.53;;;0.40;;
48014;SDS011;33780;51.034;7.120;2023-04-03T10:55:09;1.15;;;0.32;;
48014;SDS011;33780;51.034;7.120;2023-04-03T10:57:39;1.65;;;0.60;;
48014;SDS011;33780;51.034;7.120;2023-04-03T11:00:06;2.03;;;0.40;;
48014;SDS011;33780;51.034;7.120;2023-04-03T11:02:56;0.60;;;0.30;;
48014;SDS011;33780;51.034;7.120;2023-04-03T11:05:34;1.10;;;0.40;;
48014;SDS011;33780;51.034;7.120;2023-04-03T11:11:04;1.70;;;0.40;;
48014;SDS011;33780;51.034;7.120;2023-04-03T11:16:19;0.93;;;0.40;;
48014;SDS011;33780;51.034;7.120;2023-04-03T11:18:49;0.93;;;0.30;;
48014;SDS011;33780;51.034;7.120;2023-04-03T11:21:29;1.27;;;0.30;;
48014;SDS011;33780;51.034;7.120;2023-04-03T11:24:00;1.40;;;0.40;;
48014;SDS011;33780;51.034;7.120;2023-04-03T11:26:31;0.60;;;0.30;;
48014;SDS011;33780;51.034;7.120;2023-04-03T11:29:08;0.73;;;0.30;;
48014;SDS011;33780;51.034;7.120;2023-04-03T11:32:27;2.90;;;0.50;;
48014;SDS011;33780;51.034;7.120;2023-04-03T11:34:37;0.60;;;0.30;;
48014;SDS011;33780;51.034;7.120;2023-04-03T11:40:18;0.98;;;0.30;;
48014;SDS011;33780;51.034;7.120;2023-04-03T11:42:48;0.85;;;0.32;;
48014;SDS011;33780;51.034;7.120;2023-04-03T11:50:53;0.65;;;0.30;;
48014;SDS011;33780;51.034;7.120;2023-04-03T11:53:28;2.22;;;0.30;;
48014;SDS011;33780;51.034;7.120;2023-04-03T11:55:57;0.98;;;0.30;;
48014;SDS011;33780;51.034;7.120;2023-04-03T11:58:31;1.00;;;0.30;;
48014;SDS011;33780;51.034;7.120;2023-04-03T12:03:31;0.60;;;0.30;;
48014;SDS011;33780;51.034;7.120;2023-04-03T12:13:40;1.10;;;0.30;;
48014;SDS011;33780;51.034;7.120;2023-04-03T12:16:18;2.90;;;0.43;;
48014;SDS011;33780;51.034;7.120;2023-04-03T12:29:36;0.90;;;0.30;;
48014;SDS011;33780;51.034;7.120;2023-04-03T12:35:17;0.98;;;0.40;;
48014;SDS011;33780;51.034;7.120;2023-04-03T12:38:23;2.35;;;0.50;;
48014;SDS011;33780;51.034;7.120;2023-04-03T12:46:24;1.27;;;0.52;;
48014;SDS011;33780;51.034;7.120;2023-04-03T12:48:58;0.65;;;0.20;;
48014;SDS011;33780;51.034;7.120;2023-04-03T12:51:40;2.22;;;0.30;;
48014;SDS011;33780;51.034;7.120;2023-04-03T12:54:51;0.88;;;0.20;;
48014;SDS011;33780;51.034;7.120;2023-04-03T12:57:10;2.08;;;0.50;;
48014;SDS011;33780;51.034;7.120;2023-04-03T12:59:37;3.95;;;0.40;;
48014;SDS011;33780;51.034;7.120;2023-04-03T13:02:07;1.38;;;0.52;;
48014;SDS011;33780;51.034;7.120;2023-04-03T13:04:44;1.42;;;0.30;;
48014;SDS011;33780;51.034;7.120;2023-04-03T13:07:28;0.93;;;0.47;;
48014;SDS011;33780;51.034;7.120;2023-04-03T13:09:59;1.45;;;0.38;;
48014;SDS011;33780;51.034;7.120;2023-04-03T13:12:34;1.45;;;0.40;;
48014;SDS011;33780;51.034;7.120;2023-04-03T13:15:16;1.90;;;0.40;;
48014;SDS011;33780;51.034;7.120;2023-04-03T13:17:48;1.63;;;0.40;;
48014;SDS011;33780;51.034;7.120;2023-04-03T13:22:52;1.45;;;0.50;;
48014;SDS011;33780;51.034;7.120;2023-04-03T13:25:23;1.27;;;0.50;;
48014;SDS011;33780;51.034;7.120;2023-04-03T13:27:50;2.42;;;0.40;;
48014;SDS011;33780;51.034;7.120;2023-04-03T13:30:21;1.58;;;0.40;;
48014;SDS011;33780;51.034;7.120;2023-04-03T13:32:47;1.77;;;0.60;;
48014;SDS011;33780;51.034;7.120;2023-04-03T13:37:55;3.30;;;0.50;;
48014;SDS011;33780;51.034;7.120;2023-04-03T13:40:21;1.42;;;0.40;;
48014;SDS011;33780;51.034;7.120;2023-04-03T13:42:57;0.82;;;0.40;;
48014;SDS011;33780;51.034;7.120;2023-04-03T13:45:53;1.50;;;0.45;;
48014;SDS011;33780;51.034;7.120;2023-04-03T13:48:21;1.75;;;0.50;;
48014;SDS011;33780;51.034;7.120;2023-04-03T13:53:21;0.82;;;0.30;;
48014;SDS011;33780;51.034;7.120;2023-04-03T13:55:56;2.60;;;0.43;;
48014;SDS011;33780;51.034;7.120;2023-04-03T14:03:57;0.55;;;0.25;;
48014;SDS011;33780;51.034;7.120;2023-04-03T14:06:34;2.00;;;0.60;;
48014;SDS011;33780;51.034;7.120;2023-04-03T14:09:00;1.20;;;0.40;;
48014;SDS011;33780;51.034;7.120;2023-04-03T14:11:28;0.90;;;0.30;;
48014;SDS011;33780;51.034;7.120;2023-04-03T14:14:00;2.60;;;0.63;;
48014;SDS011;33780;51.034;7.120;2023-04-03T14:16:30;1.05;;;0.38;;
48014;SDS011;33780;51.034;7.120;2023-04-03T14:18:57;1.58;;;0.50;;
48014;SDS011;33780;51.034;7.120;2023-04-03T14:21:23;0.60;;;0.30;;
48014;SDS011;33780;51.034;7.120;2023-04-03T14:23:48;1.73;;;0.60;;
48014;SDS011;33780;51.034;7.120;2023-04-03T14:26:15;1.20;;;0.35;;
48014;SDS011;33780;51.034;7.120;2023-04-03T14:28:46;1.48;;;0.47;;
48014;SDS011;33780;51.034;7.120;2023-04-03T14:31:13;0.93;;;0.30;;
48014;SDS011;33780;51.034;7.120;2023-04-03T14:33:40;2.42;;;0.65;;
48014;SDS011;33780;51.034;7.120;2023-04-03T14:36:17;1.33;;;0.50;;
48014;SDS011;33780;51.034;7.120;2023-04-03T14:38:45;1.70;;;0.73;;
48014;SDS011;33780;51.034;7.120;2023-04-03T14:41:15;0.80;;;0.30;;
48014;SDS011;33780;51.034;7.120;2023-04-03T14:43:41;1.85;;;0.38;;
48014;SDS011;33780;51.034;7.120;2023-04-03T14:46:18;2.22;;;0.70;;
48014;SDS011;33780;51.034;7.120;2023-04-03T14:48:48;0.80;;;0.30;;
48014;SDS011;33780;51.034;7.120;2023-04-03T14:51:14;2.88;;;0.45;;
48014;SDS011;33780;51.034;7.120;2023-04-03T14:53:40;0.98;;;0.40;;
48014;SDS011;33780;51.034;7.120;2023-04-03T14:56:14;1.40;;;0.43;;
48014;SDS011;33780;51.034;7.120;2023-04-03T14:58:47;1.77;;;0.40;;
48014;SDS011;33780;51.034;7.120;2023-04-03T15:01:15;0.75;;;0.30;;
48014;SDS011;33780;51.034;7.120;2023-04-03T15:03:41;1.13;;;0.50;;
48014;SDS011;33780;51.034;7.120;2023-04-03T15:06:08;1.58;;;0.50;;
48014;SDS011;33780;51.034;7.120;2023-04-03T15:08:36;2.65;;;0.70;;
48014;SDS011;33780;51.034;7.120;2023-04-03T15:11:02;3.45;;;0.68;;
48014;SDS011;33780;51.034;7.120;2023-04-03T15:13:27;2.45;;;0.40;;
48014;SDS011;33780;51.034;7.120;2023-04-03T15:15:52;1.75;;;0.68;;
48014;SDS011;33780;51.034;7.120;2023-04-03T15:18:19;0.80;;;0.40;;
48014;SDS011;33780;51.034;7.120;2023-04-03T15:20:46;1.30;;;0.50;;
48014;SDS011;33780;51.034;7.120;2023-04-03T15:23:13;2.42;;;0.63;;
48014;SDS011;33780;51.034;7.120;2023-04-03T15:25:41;1.77;;;0.50;;
48014;SDS011;33780;51.034;7.120;2023-04-03T15:28:09;1.42;;;0.50;;
48014;SDS011;33780;51.034;7.120;2023-04-03T15:30:48;1.20;;;0.50;;
48014;SDS011;33780;51.034;7.120;2023-04-03T15:33:13;1.10;;;0.65;;
48014;SDS011;33780;51.034;7.120;2023-04-03T15:35:40;1.75;;;0.60;;
48014;SDS011;33780;51.034;7.120;2023-04-03T15:38:06;0.80;;;0.40;;
48014;SDS011;33780;51.034;7.120;2023-04-03T15:40:31;1.30;;;0.47;;
48014;SDS011;33780;51.034;7.120;2023-04-03T15:42:56;1.10;;;0.40;;
48014;SDS011;33780;51.034;7.120;2023-04-03T15:45:24;1.25;;;0.50;;
48014;SDS011;33780;51.034;7.120;2023-04-03T15:47:50;2.10;;;0.52;;
48014;SDS011;33780;51.034;7.120;2023-04-03T15:50:16;0.95;;;0.30;;
48014;SDS011;33780;51.034;7.120;2023-04-03T15:52:41;1.00;;;0.50;;
48014;SDS011;33780;51.034;7.120;2023-04-03T15:55:07;1.70;;;0.50;;
48014;SDS011;33780;51.034;7.120;2023-04-03T15:57:39;1.60;;;0.70;;
48014;SDS011;33780;51.034;7.120;2023-04-03T16:00:05;2.40;;;0.50;;
48014;SDS011;33780;51.034;7.120;2023-04-03T16:02:31;1.55;;;0.70;;
48014;SDS011;33780;51.034;7.120;2023-04-03T16:05:00;0.70;;;0.30;;
48014;SDS011;33780;51.034;7.120;2023-04-03T16:07:26;4.05;;;0.60;;
48014;SDS011;33780;51.034;7.120;2023-04-03T16:09:51;1.67;;;0.60;;
48014;SDS011;33780;51.034;7.120;2023-04-03T16:12:19;1.17;;;0.43;;
48014;SDS011;33780;51.034;7.120;2023-04-03T16:14:47;1.33;;;0.38;;
48014;SDS011;33780;51.034;7.120;2023-04-03T16:17:13;3.17;;;0.50;;
48014;SDS011;33780;51.034;7.120;2023-04-03T16:19:38;1.25;;;0.47;;
48014;SDS011;33780;51.034;7.120;2023-04-03T16:22:11;0.90;;;0.40;;
48014;SDS011;33780;51.034;7.120;2023-04-03T16:24:36;1.40;;;0.55;;
48014;SDS011;33780;51.034;7.120;2023-04-03T16:27:03;0.95;;;0.40;;
48014;SDS011;33780;51.034;7.120;2023-04-03T16:29:30;1.13;;;0.40;;
48014;SDS011;33780;51.034;7.120;2023-04-03T16:31:56;1.20;;;0.50;;
48014;SDS011;33780;51.034;7.120;2023-04-03T16:34:22;1.67;;;0.40;;
48014;SDS011;33780;51.034;7.120;2023-04-03T16:36:48;3.20;;;0.55;;
48014;SDS011;33780;51.034;7.120;2023-04-03T16:39:13;2.38;;;0.43;;
48014;SDS011;33780;51.034;7.120;2023-04-03T16:41:39;1.75;;;0.50;;
48014;SDS011;33780;51.034;7.120;2023-04-03T16:44:04;1.13;;;0.40;;
48014;SDS011;33780;51.034;7.120;2023-04-03T16:46:32;1.55;;;0.68;;